createdAt,value
2019-01-22T00:01:28.329Z,92.40
2019-01-22T00:03:57.804Z,92.30
2019-01-22T00:06:27.278Z,92.30
2019-01-22T00:08:56.665Z,92.50
2019-01-22T00:11:26.104Z,92.80
2019-01-22T00:13:55.486Z,92.90
2019-01-22T00:16:24.965Z,92.60
2019-01-22T00:18:54.338Z,92.30
2019-01-22T00:21:23.870Z,92.10
2019-01-22T00:23:53.194Z,92.30
2019-01-22T00:26:23.011Z,92.40
2019-01-22T00:28:52.353Z,92.50
2019-01-22T00:31:22.101Z,92.80
2019-01-22T00:33:51.473Z,92.80
2019-01-22T00:36:21.004Z,92.80
2019-01-22T00:38:50.405Z,92.90
2019-01-22T00:41:19.840Z,93.10
2019-01-22T00:43:49.202Z,93.10
2019-01-22T00:46:18.720Z,93.10
2019-01-22T00:48:48.401Z,93.20
2019-01-22T00:51:17.808Z,93.10
2019-01-22T00:53:47.300Z,92.90
2019-01-22T00:56:16.689Z,92.90
2019-01-22T00:58:46.224Z,92.80
2019-01-22T01:01:15.638Z,92.80
2019-01-22T01:03:45.060Z,92.70
2019-01-22T01:06:14.425Z,92.80
2019-01-22T01:08:43.901Z,92.70
2019-01-22T01:11:13.620Z,92.50
2019-01-22T01:13:42.949Z,92.40
2019-01-22T01:16:12.373Z,92.60
2019-01-22T01:18:41.685Z,92.60
2019-01-22T01:21:11.145Z,92.90
2019-01-22T01:23:40.407Z,92.70
2019-01-22T01:26:10.038Z,92.80
2019-01-22T01:28:39.368Z,92.90
2019-01-22T01:31:08.783Z,93.20
2019-01-22T01:33:38.230Z,92.80
2019-01-22T01:36:07.873Z,92.80
2019-01-22T01:38:37.445Z,92.80
2019-01-22T01:41:06.900Z,92.70
2019-01-22T01:43:36.269Z,92.70
2019-01-22T01:46:05.794Z,93.00
2019-01-22T01:48:35.209Z,93.10
2019-01-22T01:51:04.681Z,93.00
2019-01-22T01:53:34.120Z,93.00
2019-01-22T01:56:03.617Z,92.90
2019-01-22T01:58:33.056Z,92.80
2019-01-22T02:01:02.645Z,92.80
2019-01-22T02:03:31.976Z,92.80
2019-01-22T02:06:01.641Z,92.80
2019-01-22T02:08:51.702Z,92.70
2019-01-22T02:11:59.311Z,92.60
2019-01-22T02:14:52.628Z,92.60
2019-01-22T02:18:05.425Z,92.70
2019-01-22T02:21:13.033Z,92.80
2019-01-22T02:24:28.768Z,92.90
2019-01-22T02:27:54.630Z,93.20
2019-01-22T02:31:02.328Z,93.20
2019-01-22T02:37:33.269Z,93.30
2019-01-22T02:40:41.374Z,93.40
2019-01-22T02:44:00.392Z,93.40
2019-01-22T02:47:10.665Z,93.40
2019-01-22T02:50:30.883Z,93.40
2019-01-22T02:53:47.744Z,93.20
2019-01-22T02:57:16.162Z,93.30
2019-01-22T03:00:25.032Z,93.40
2019-01-22T03:03:34.200Z,93.30
2019-01-22T03:06:59.677Z,93.50
2019-01-22T03:10:17.980Z,93.60
2019-01-22T03:13:31.248Z,92.90
2019-01-22T03:16:36.937Z,93.10
2019-01-22T03:19:58.473Z,93.20
2019-01-22T03:23:25.171Z,93.30
2019-01-22T03:26:56.798Z,92.90
2019-01-22T03:30:07.558Z,92.70
2019-01-22T03:33:19.659Z,92.60
2019-01-22T03:36:26.035Z,92.70
2019-01-22T03:39:09.947Z,92.80
2019-01-22T03:42:16.340Z,92.80
2019-01-22T03:45:32.846Z,92.90
2019-01-22T03:48:57.852Z,93.00
2019-01-22T03:55:58.057Z,93.20
2019-01-22T03:59:05.693Z,93.40
2019-01-22T04:02:13.165Z,93.40
2019-01-22T04:05:20.813Z,93.30
2019-01-22T04:11:44.078Z,93.70
2019-01-22T04:14:52.097Z,93.70
2019-01-22T04:17:59.677Z,93.70
2019-01-22T04:21:07.350Z,93.50
2019-01-22T04:28:02.678Z,93.60
2019-01-22T04:31:28.021Z,93.60
2019-01-22T04:34:34.073Z,93.30
2019-01-22T04:37:57.268Z,93.00
2019-01-22T04:41:19.599Z,93.20
2019-01-22T04:44:28.600Z,93.20
2019-01-22T04:47:37.597Z,93.40
2019-01-22T04:50:42.766Z,93.50
2019-01-22T04:54:09.389Z,93.50
2019-01-22T04:57:29.570Z,93.70
2019-01-22T05:00:49.124Z,93.20
2019-01-22T05:04:05.384Z,92.90
2019-01-22T05:07:12.011Z,92.70
2019-01-22T05:10:37.364Z,93.00
2019-01-22T05:14:06.034Z,92.90
2019-01-22T05:17:19.200Z,92.50
2019-01-22T05:20:44.552Z,92.70
2019-01-22T05:24:03.923Z,92.60
2019-01-22T05:27:09.402Z,92.90
2019-01-22T05:30:25.808Z,93.10
2019-01-22T05:33:33.362Z,93.40
2019-01-22T05:40:11.847Z,93.40
2019-01-22T05:43:24.937Z,93.20
2019-01-22T05:46:47.515Z,93.60
2019-01-22T05:50:19.026Z,93.40
2019-01-22T05:53:26.793Z,93.10
2019-01-22T05:56:39.986Z,93.00
2019-01-22T06:03:10.277Z,93.10
2019-01-22T06:06:20.686Z,93.20
2019-01-22T06:09:32.449Z,93.30
2019-01-22T06:12:44.536Z,93.00
2019-01-22T06:15:52.194Z,93.00
2019-01-22T06:18:56.725Z,93.20
2019-01-22T06:22:02.131Z,93.20
2019-01-22T06:25:25.634Z,93.20
2019-01-22T06:28:39.066Z,93.30
